sensor_id;sensor_type;location;lat;lon;timestamp;P1;durP1;ratioP1;P2;durP2;ratioP2
66974;SDS011;53903;51.464;-2.584;2022-07-06T13:04:01;2.33;;;1.20;;
66974;SDS011;53903;51.464;-2.584;2022-07-06T13:06:31;1.73;;;1.00;;
66974;SDS011;53903;51.464;-2.584;2022-07-06T13:08:58;3.55;;;1.10;;
66974;SDS011;53903;51.464;-2.584;2022-07-06T13:11:23;3.22;;;1.38;;
66974;SDS011;53903;51.464;-2.584;2022-07-06T13:13:48;3.80;;;1.50;;
66974;SDS011;53903;51.464;-2.584;2022-07-06T13:16:14;6.43;;;2.13;;
66974;SDS011;53903;51.464;-2.584;2022-07-06T13:18:39;2.85;;;1.33;;
66974;SDS011;53903;51.464;-2.584;2022-07-06T13:21:05;3.97;;;1.40;;
66974;SDS011;53903;51.464;-2.584;2022-07-06T13:23:30;1.90;;;1.10;;
66974;SDS011;53903;51.464;-2.584;2022-07-06T13:25:56;4.38;;;1.20;;
66974;SDS011;53903;51.464;-2.584;2022-07-06T13:28:21;6.65;;;1.48;;
66974;SDS011;53903;51.464;-2.584;2022-07-06T13:30:46;4.05;;;1.60;;
66974;SDS011;53903;51.464;-2.584;2022-07-06T13:33:12;2.65;;;1.00;;
66974;SDS011;53903;51.464;-2.584;2022-07-06T13:35:37;3.75;;;1.30;;
66974;SDS011;53903;51.464;-2.584;2022-07-06T13:38:03;1.88;;;0.93;;
66974;SDS011;53903;51.464;-2.584;2022-07-06T13:40:28;5.03;;;1.80;;
66974;SDS011;53903;51.464;-2.584;2022-07-06T13:42:54;7.28;;;1.40;;
66974;SDS011;53903;51.464;-2.584;2022-07-06T13:45:19;1.40;;;1.05;;
66974;SDS011;53903;51.464;-2.584;2022-07-06T13:47:45;4.15;;;1.23;;
66974;SDS011;53903;51.464;-2.584;2022-07-06T13:50:10;2.85;;;1.00;;
66974;SDS011;53903;51.464;-2.584;2022-07-06T13:52:36;4.22;;;1.27;;
66974;SDS011;53903;51.464;-2.584;2022-07-06T13:55:02;3.88;;;1.30;;
66974;SDS011;53903;51.464;-2.584;2022-07-06T13:57:28;3.50;;;1.20;;
66974;SDS011;53903;51.464;-2.584;2022-07-06T13:59:53;2.58;;;1.20;;
66974;SDS011;53903;51.464;-2.584;2022-07-06T14:02:18;4.65;;;2.15;;
66974;SDS011;53903;51.464;-2.584;2022-07-06T14:04:44;4.82;;;1.10;;
66974;SDS011;53903;51.464;-2.584;2022-07-06T14:07:09;2.00;;;1.10;;
66974;SDS011;53903;51.464;-2.584;2022-07-06T14:09:34;4.60;;;1.50;;
66974;SDS011;53903;51.464;-2.584;2022-07-06T14:12:00;4.68;;;1.50;;
66974;SDS011;53903;51.464;-2.584;2022-07-06T14:14:25;3.85;;;1.00;;
66974;SDS011;53903;51.464;-2.584;2022-07-06T14:16:51;2.65;;;1.40;;
66974;SDS011;53903;51.464;-2.584;2022-07-06T14:19:16;3.30;;;1.40;;
66974;SDS011;53903;51.464;-2.584;2022-07-06T14:21:41;4.07;;;1.40;;
66974;SDS011;53903;51.464;-2.584;2022-07-06T14:24:07;2.35;;;1.10;;
66974;SDS011;53903;51.464;-2.584;2022-07-06T14:26:32;7.75;;;4.15;;
66974;SDS011;53903;51.464;-2.584;2022-07-06T14:28:58;4.45;;;1.20;;
66974;SDS011;53903;51.464;-2.584;2022-07-06T14:31:24;6.97;;;1.60;;
66974;SDS011;53903;51.464;-2.584;2022-07-06T14:33:49;5.25;;;1.90;;
66974;SDS011;53903;51.464;-2.584;2022-07-06T14:36:15;6.05;;;1.77;;
66974;SDS011;53903;51.464;-2.584;2022-07-06T14:38:40;3.40;;;1.58;;
66974;SDS011;53903;51.464;-2.584;2022-07-06T14:41:06;2.63;;;1.50;;
66974;SDS011;53903;51.464;-2.584;2022-07-06T14:43:31;6.22;;;1.30;;
66974;SDS011;53903;51.464;-2.584;2022-07-06T14:45:56;4.38;;;1.20;;
66974;SDS011;53903;51.464;-2.584;2022-07-06T14:48:22;4.38;;;1.60;;
66974;SDS011;53903;51.464;-2.584;2022-07-06T14:50:48;4.05;;;1.50;;
66974;SDS011;53903;51.464;-2.584;2022-07-06T14:53:13;4.97;;;1.52;;
66974;SDS011;53903;51.464;-2.584;2022-07-06T14:55:39;4.80;;;1.50;;
66974;SDS011;53903;51.464;-2.584;2022-07-06T14:58:04;6.97;;;1.63;;
66974;SDS011;53903;51.464;-2.584;2022-07-06T15:00:29;5.95;;;1.70;;
66974;SDS011;53903;51.464;-2.584;2022-07-06T15:02:55;2.83;;;1.42;;
66974;SDS011;53903;51.464;-2.584;2022-07-06T15:05:20;2.78;;;1.45;;
66974;SDS011;53903;51.464;-2.584;2022-07-06T15:07:46;4.60;;;1.55;;
66974;SDS011;53903;51.464;-2.584;2022-07-06T15:10:11;6.90;;;1.70;;
66974;SDS011;53903;51.464;-2.584;2022-07-06T15:12:37;4.03;;;1.40;;
66974;SDS011;53903;51.464;-2.584;2022-07-06T15:15:02;4.63;;;1.38;;
66974;SDS011;53903;51.464;-2.584;2022-07-06T15:17:28;3.13;;;1.17;;
66974;SDS011;53903;51.464;-2.584;2022-07-06T15:19:56;1.67;;;1.17;;
66974;SDS011;53903;51.464;-2.584;2022-07-06T15:22:21;6.28;;;1.60;;
66974;SDS011;53903;51.464;-2.584;2022-07-06T15:24:47;4.13;;;1.33;;
66974;SDS011;53903;51.464;-2.584;2022-07-06T15:27:12;9.02;;;2.10;;
66974;SDS011;53903;51.464;-2.584;2022-07-06T15:29:38;8.48;;;1.33;;
66974;SDS011;53903;51.464;-2.584;2022-07-06T15:32:03;3.25;;;1.25;;
66974;SDS011;53903;51.464;-2.584;2022-07-06T15:34:29;3.45;;;1.20;;
66974;SDS011;53903;51.464;-2.584;2022-07-06T15:36:54;3.72;;;1.38;;
66974;SDS011;53903;51.464;-2.584;2022-07-06T15:39:20;5.65;;;1.77;;
66974;SDS011;53903;51.464;-2.584;2022-07-06T15:41:46;4.03;;;1.63;;
66974;SDS011;53903;51.464;-2.584;2022-07-06T15:44:11;2.55;;;1.40;;
66974;SDS011;53903;51.464;-2.584;2022-07-06T15:46:36;3.60;;;1.45;;
66974;SDS011;53903;51.464;-2.584;2022-07-06T15:49:02;3.05;;;1.40;;
66974;SDS011;53903;51.464;-2.584;2022-07-06T15:51:28;6.57;;;1.42;;
66974;SDS011;53903;51.464;-2.584;2022-07-06T15:53:54;3.42;;;1.45;;
66974;SDS011;53903;51.464;-2.584;2022-07-06T15:56:19;2.65;;;1.40;;
66974;SDS011;53903;51.464;-2.584;2022-07-06T15:58:45;4.85;;;1.75;;
66974;SDS011;53903;51.464;-2.584;2022-07-06T16:01:10;5.18;;;1.83;;
66974;SDS011;53903;51.464;-2.584;2022-07-06T16:03:35;6.93;;;2.25;;
66974;SDS011;53903;51.464;-2.584;2022-07-06T16:06:03;5.35;;;1.52;;
66974;SDS011;53903;51.464;-2.584;2022-07-06T16:08:29;4.63;;;1.48;;
66974;SDS011;53903;51.464;-2.584;2022-07-06T16:10:55;4.03;;;1.48;;
66974;SDS011;53903;51.464;-2.584;2022-07-06T16:13:20;7.38;;;1.73;;
66974;SDS011;53903;51.464;-2.584;2022-07-06T16:15:45;3.65;;;1.20;;
66974;SDS011;53903;51.464;-2.584;2022-07-06T16:18:11;3.03;;;1.30;;
66974;SDS011;53903;51.464;-2.584;2022-07-06T16:20:37;3.80;;;1.60;;
66974;SDS011;53903;51.464;-2.584;2022-07-06T16:23:02;3.28;;;1.27;;
66974;SDS011;53903;51.464;-2.584;2022-07-06T16:25:28;4.68;;;1.70;;
66974;SDS011;53903;51.464;-2.584;2022-07-06T16:27:53;5.55;;;1.65;;
66974;SDS011;53903;51.464;-2.584;2022-07-06T16:30:18;5.72;;;1.83;;
66974;SDS011;53903;51.464;-2.584;2022-07-06T16:32:44;3.78;;;1.73;;
66974;SDS011;53903;51.464;-2.584;2022-07-06T16:35:09;7.30;;;1.60;;
66974;SDS011;53903;51.464;-2.584;2022-07-06T16:37:35;7.05;;;1.67;;
66974;SDS011;53903;51.464;-2.584;2022-07-06T16:40:00;6.85;;;1.50;;
66974;SDS011;53903;51.464;-2.584;2022-07-06T16:42:25;5.47;;;1.85;;
66974;SDS011;53903;51.464;-2.584;2022-07-06T16:44:51;6.18;;;1.38;;
66974;SDS011;53903;51.464;-2.584;2022-07-06T16:47:16;6.25;;;1.70;;
66974;SDS011;53903;51.464;-2.584;2022-07-06T16:49:41;4.32;;;1.42;;
66974;SDS011;53903;51.464;-2.584;2022-07-06T16:52:07;4.13;;;1.90;;
66974;SDS011;53903;51.464;-2.584;2022-07-06T16:54:33;7.22;;;1.85;;
66974;SDS011;53903;51.464;-2.584;2022-07-06T16:56:58;3.75;;;1.20;;
66974;SDS011;53903;51.464;-2.584;2022-07-06T16:59:24;4.88;;;1.70;;
66974;SDS011;53903;51.464;-2.584;2022-07-06T17:01:50;4.38;;;1.70;;
66974;SDS011;53903;51.464;-2.584;2022-07-06T17:04:15;4.00;;;1.70;;
66974;SDS011;53903;51.464;-2.584;2022-07-06T17:06:41;4.22;;;1.30;;
66974;SDS011;53903;51.464;-2.584;2022-07-06T17:09:06;6.80;;;1.70;;
66974;SDS011;53903;51.464;-2.584;2022-07-06T17:11:32;4.65;;;1.48;;
66974;SDS011;53903;51.464;-2.584;2022-07-06T17:13:57;4.15;;;1.60;;
66974;SDS011;53903;51.464;-2.584;2022-07-06T17:16:23;4.32;;;1.85;;
66974;SDS011;53903;51.464;-2.584;2022-07-06T17:18:48;2.88;;;1.05;;
66974;SDS011;53903;51.464;-2.584;2022-07-06T17:21:14;4.28;;;1.80;;
66974;SDS011;53903;51.464;-2.584;2022-07-06T17:23:39;7.63;;;1.50;;
66974;SDS011;53903;51.464;-2.584;2022-07-06T17:26:05;7.80;;;1.55;;
66974;SDS011;53903;51.464;-2.584;2022-07-06T17:28:30;6.32;;;1.77;;
66974;SDS011;53903;51.464;-2.584;2022-07-06T17:30:57;5.75;;;1.88;;
66974;SDS011;53903;51.464;-2.584;2022-07-06T17:33:23;5.93;;;1.75;;
66974;SDS011;53903;51.464;-2.584;2022-07-06T17:35:48;5.55;;;1.52;;
66974;SDS011;53903;51.464;-2.584;2022-07-06T17:38:13;5.40;;;1.70;;
66974;SDS011;53903;51.464;-2.584;2022-07-06T17:40:41;6.05;;;1.80;;
66974;SDS011;53903;51.464;-2.584;2022-07-06T17:43:07;4.40;;;1.38;;
66974;SDS011;53903;51.464;-2.584;2022-07-06T17:45:32;5.57;;;1.60;;
66974;SDS011;53903;51.464;-2.584;2022-07-06T17:47:59;7.93;;;1.70;;
66974;SDS011;53903;51.464;-2.584;2022-07-06T17:50:25;8.60;;;1.40;;
66974;SDS011;53903;51.464;-2.584;2022-07-06T17:52:50;5.25;;;1.52;;
66974;SDS011;53903;51.464;-2.584;2022-07-06T17:55:16;4.88;;;1.40;;
66974;SDS011;53903;51.464;-2.584;2022-07-06T17:57:41;4.65;;;1.20;;
66974;SDS011;53903;51.464;-2.584;2022-07-06T18:00:07;4.47;;;1.63;;
66974;SDS011;53903;51.464;-2.584;2022-07-06T18:02:33;6.63;;;1.48;;
66974;SDS011;53903;51.464;-2.584;2022-07-06T18:04:59;4.68;;;1.50;;
66974;SDS011;53903;51.464;-2.584;2022-07-06T18:07:24;4.18;;;1.20;;
66974;SDS011;53903;51.464;-2.584;2022-07-06T18:09:50;5.47;;;1.30;;
66974;SDS011;53903;51.464;-2.584;2022-07-06T18:12:16;5.18;;;1.90;;
66974;SDS011;53903;51.464;-2.584;2022-07-06T18:14:42;8.50;;;1.67;;
66974;SDS011;53903;51.464;-2.584;2022-07-06T18:17:07;6.35;;;1.42;;
66974;SDS011;53903;51.464;-2.584;2022-07-06T18:19:33;6.03;;;1.67;;
66974;SDS011;53903;51.464;-2.584;2022-07-06T18:21:59;5.85;;;1.58;;
66974;SDS011;53903;51.464;-2.584;2022-07-06T18:24:24;6.43;;;1.98;;
66974;SDS011;53903;51.464;-2.584;2022-07-06T18:26:49;7.78;;;1.92;;
66974;SDS011;53903;51.464;-2.584;2022-07-06T18:29:15;3.10;;;1.15;;
66974;SDS011;53903;51.464;-2.584;2022-07-06T18:31:40;1.73;;;0.90;;
66974;SDS011;53903;51.464;-2.584;2022-07-06T18:34:06;1.98;;;0.95;;
66974;SDS011;53903;51.464;-2.584;2022-07-06T18:36:31;0.50;;;0.50;;
66974;SDS011;53903;51.464;-2.584;2022-07-06T18:38:57;1.27;;;0.70;;
66974;SDS011;53903;51.464;-2.584;2022-07-06T18:41:23;1.92;;;0.80;;
66974;SDS011;53903;51.464;-2.584;2022-07-06T18:43:49;1.30;;;0.57;;
66974;SDS011;53903;51.464;-2.584;2022-07-06T18:46:14;0.60;;;0.50;;
66974;SDS011;53903;51.464;-2.584;2022-07-06T18:48:40;1.75;;;0.60;;
66974;SDS011;53903;51.464;-2.584;2022-07-06T18:51:05;1.55;;;0.75;;
66974;SDS011;53903;51.464;-2.584;2022-07-06T18:53:31;0.70;;;0.57;;
66974;SDS011;53903;51.464;-2.584;2022-07-06T18:55:56;1.95;;;0.80;;
66974;SDS011;53903;51.464;-2.584;2022-07-06T18:58:21;0.93;;;0.65;;
66974;SDS011;53903;51.464;-2.584;2022-07-06T19:00:47;1.42;;;0.60;;
66974;SDS011;53903;51.464;-2.584;2022-07-06T19:03:13;1.35;;;0.75;;
66974;SDS011;53903;51.464;-2.584;2022-07-06T19:05:39;0.88;;;0.80;;
66974;SDS011;53903;51.464;-2.584;2022-07-06T19:08:04;3.53;;;0.93;;
66974;SDS011;53903;51.464;-2.584;2022-07-06T19:10:30;1.27;;;0.63;;
66974;SDS011;53903;51.464;-2.584;2022-07-06T19:12:55;1.08;;;0.98;;
66974;SDS011;53903;51.464;-2.584;2022-07-06T19:15:21;1.02;;;0.80;;
66974;SDS011;53903;51.464;-2.584;2022-07-06T19:17:46;2.00;;;0.75;;
66974;SDS011;53903;51.464;-2.584;2022-07-06T19:20:14;0.93;;;0.80;;
66974;SDS011;53903;51.464;-2.584;2022-07-06T19:22:40;1.17;;;0.70;;
66974;SDS011;53903;51.464;-2.584;2022-07-06T19:25:05;0.75;;;0.60;;
66974;SDS011;53903;51.464;-2.584;2022-07-06T19:27:31;2.35;;;1.00;;
66974;SDS011;53903;51.464;-2.584;2022-07-06T19:29:57;1.15;;;0.70;;
66974;SDS011;53903;51.464;-2.584;2022-07-06T19:32:22;1.35;;;0.60;;
66974;SDS011;53903;51.464;-2.584;2022-07-06T19:34:48;0.80;;;0.70;;
66974;SDS011;53903;51.464;-2.584;2022-07-06T19:37:13;0.93;;;0.75;;
66974;SDS011;53903;51.464;-2.584;2022-07-06T19:39:39;0.95;;;0.82;;
66974;SDS011;53903;51.464;-2.584;2022-07-06T19:42:04;1.25;;;0.70;;
66974;SDS011;53903;51.464;-2.584;2022-07-06T19:44:30;1.75;;;0.93;;
66974;SDS011;53903;51.464;-2.584;2022-07-06T19:46:55;2.97;;;1.48;;
66974;SDS011;53903;51.464;-2.584;2022-07-06T19:49:20;1.52;;;0.82;;
66974;SDS011;53903;51.464;-2.584;2022-07-06T19:51:46;1.58;;;0.80;;
66974;SDS011;53903;51.464;-2.584;2022-07-06T19:54:12;1.75;;;0.70;;
66974;SDS011;53903;51.464;-2.584;2022-07-06T19:56:37;4.32;;;0.95;;
66974;SDS011;53903;51.464;-2.584;2022-07-06T19:59:02;1.85;;;0.80;;
66974;SDS011;53903;51.464;-2.584;2022-07-06T20:01:28;0.70;;;0.65;;
66974;SDS011;53903;51.464;-2.584;2022-07-06T20:03:53;4.43;;;0.60;;
66974;SDS011;53903;51.464;-2.584;2022-07-06T20:06:19;1.55;;;0.80;;
66974;SDS011;53903;51.464;-2.584;2022-07-06T20:08:44;1.45;;;1.30;;
66974;SDS011;53903;51.464;-2.584;2022-07-06T20:11:09;1.00;;;0.77;;
66974;SDS011;53903;51.464;-2.584;2022-07-06T20:13:35;0.88;;;0.73;;
66974;SDS011;53903;51.464;-2.584;2022-07-06T20:16:00;2.22;;;0.90;;
66974;SDS011;53903;51.464;-2.584;2022-07-06T20:18:25;2.58;;;1.00;;
66974;SDS011;53903;51.464;-2.584;2022-07-06T20:20:54;4.20;;;1.10;;
66974;SDS011;53903;51.464;-2.584;2022-07-06T20:23:20;3.38;;;1.00;;
66974;SDS011;53903;51.464;-2.584;2022-07-06T20:25:46;2.88;;;1.25;;
66974;SDS011;53903;51.464;-2.584;2022-07-06T20:28:12;5.90;;;1.60;;
66974;SDS011;53903;51.464;-2.584;2022-07-06T20:30:38;6.00;;;2.08;;
66974;SDS011;53903;51.464;-2.584;2022-07-06T20:33:04;4.53;;;1.58;;
66974;SDS011;53903;51.464;-2.584;2022-07-06T20:35:29;2.90;;;1.35;;
66974;SDS011;53903;51.464;-2.584;2022-07-06T20:37:55;5.53;;;1.77;;
66974;SDS011;53903;51.464;-2.584;2022-07-06T20:40:20;4.63;;;1.60;;
66974;SDS011;53903;51.464;-2.584;2022-07-06T20:42:46;3.60;;;2.05;;
66974;SDS011;53903;51.464;-2.584;2022-07-06T20:45:15;4.65;;;1.90;;
66974;SDS011;53903;51.464;-2.584;2022-07-06T20:47:40;3.85;;;1.45;;
66974;SDS011;53903;51.464;-2.584;2022-07-06T20:50:06;7.60;;;2.33;;
66974;SDS011;53903;51.464;-2.584;2022-07-06T20:52:33;3.70;;;1.88;;
66974;SDS011;53903;51.464;-2.584;2022-07-06T20:54:59;5.07;;;2.17;;
66974;SDS011;53903;51.464;-2.584;2022-07-06T20:57:24;5.30;;;2.13;;
66974;SDS011;53903;51.464;-2.584;2022-07-06T20:59:50;6.05;;;2.15;;
66974;SDS011;53903;51.464;-2.584;2022-07-06T21:02:15;4.88;;;2.50;;
66974;SDS011;53903;51.464;-2.584;2022-07-06T21:04:40;7.82;;;2.05;;
66974;SDS011;53903;51.464;-2.584;2022-07-06T21:07:06;5.85;;;2.00;;
66974;SDS011;53903;51.464;-2.584;2022-07-06T21:09:31;4.30;;;2.38;;
66974;SDS011;53903;51.464;-2.584;2022-07-06T21:11:56;8.43;;;2.95;;
66974;SDS011;53903;51.464;-2.584;2022-07-06T21:14:22;5.03;;;2.70;;
66974;SDS011;53903;51.464;-2.584;2022-07-06T21:16:47;4.82;;;2.40;;
66974;SDS011;53903;51.464;-2.584;2022-07-06T21:19:13;6.20;;;2.47;;
66974;SDS011;53903;51.464;-2.584;2022-07-06T21:21:38;5.95;;;2.50;;
66974;SDS011;53903;51.464;-2.584;2022-07-06T21:24:03;7.07;;;2.60;;
66974;SDS011;53903;51.464;-2.584;2022-07-06T21:26:31;6.10;;;2.90;;
66974;SDS011;53903;51.464;-2.584;2022-07-06T21:28:56;6.20;;;2.40;;
66974;SDS011;53903;51.464;-2.584;2022-07-06T21:31:23;5.75;;;2.42;;
66974;SDS011;53903;51.464;-2.584;2022-07-06T21:33:49;6.03;;;2.50;;
66974;SDS011;53903;51.464;-2.584;2022-07-06T21:36:14;5.03;;;2.40;;
66974;SDS011;53903;51.464;-2.584;2022-07-06T21:38:39;7.40;;;2.65;;
66974;SDS011;53903;51.464;-2.584;2022-07-06T21:41:05;6.93;;;2.38;;
66974;SDS011;53903;51.464;-2.584;2022-07-06T21:43:30;5.22;;;2.00;;
66974;SDS011;53903;51.464;-2.584;2022-07-06T21:45:56;6.43;;;2.97;;
66974;SDS011;53903;51.464;-2.584;2022-07-06T21:48:21;6.85;;;2.70;;
66974;SDS011;53903;51.464;-2.584;2022-07-06T21:50:47;7.18;;;2.88;;
66974;SDS011;53903;51.464;-2.584;2022-07-06T21:53:12;7.90;;;3.00;;
66974;SDS011;53903;51.464;-2.584;2022-07-06T21:55:38;8.90;;;3.22;;
66974;SDS011;53903;51.464;-2.584;2022-07-06T21:58:03;7.18;;;2.85;;
66974;SDS011;53903;51.464;-2.584;2022-07-06T22:00:29;8.35;;;3.42;;
66974;SDS011;53903;51.464;-2.584;2022-07-06T22:02:54;6.55;;;2.92;;
66974;SDS011;53903;51.464;-2.584;2022-07-06T22:05:21;9.68;;;3.35;;
66974;SDS011;53903;51.464;-2.584;2022-07-06T22:07:46;9.25;;;3.35;;
66974;SDS011;53903;51.464;-2.584;2022-07-06T22:10:12;8.48;;;2.97;;
66974;SDS011;53903;51.464;-2.584;2022-07-06T22:12:38;4.47;;;2.10;;
66974;SDS011;53903;51.464;-2.584;2022-07-06T22:15:04;7.25;;;2.90;;
66974;SDS011;53903;51.464;-2.584;2022-07-06T22:17:30;8.05;;;3.15;;
66974;SDS011;53903;51.464;-2.584;2022-07-06T22:19:55;6.47;;;2.40;;
66974;SDS011;53903;51.464;-2.584;2022-07-06T22:22:23;10.82;;;3.67;;
66974;SDS011;53903;51.464;-2.584;2022-07-06T22:24:49;8.60;;;2.95;;
66974;SDS011;53903;51.464;-2.584;2022-07-06T22:27:15;11.35;;;3.72;;
66974;SDS011;53903;51.464;-2.584;2022-07-06T22:29:40;8.57;;;3.05;;
66974;SDS011;53903;51.464;-2.584;2022-07-06T22:32:06;9.30;;;3.40;;
66974;SDS011;53903;51.464;-2.584;2022-07-06T22:34:32;9.27;;;3.38;;
66974;SDS011;53903;51.464;-2.584;2022-07-06T22:36:57;8.65;;;3.25;;
66974;SDS011;53903;51.464;-2.584;2022-07-06T22:39:22;5.78;;;3.15;;
66974;SDS011;53903;51.464;-2.584;2022-07-06T22:41:48;7.13;;;3.20;;
66974;SDS011;53903;51.464;-2.584;2022-07-06T22:44:13;8.05;;;3.42;;
66974;SDS011;53903;51.464;-2.584;2022-07-06T22:46:39;11.35;;;3.35;;
66974;SDS011;53903;51.464;-2.584;2022-07-06T22:49:04;8.02;;;3.33;;
66974;SDS011;53903;51.464;-2.584;2022-07-06T22:51:30;7.82;;;3.53;;
66974;SDS011;53903;51.464;-2.584;2022-07-06T22:53:55;6.57;;;3.45;;
66974;SDS011;53903;51.464;-2.584;2022-07-06T22:56:21;9.35;;;3.00;;
66974;SDS011;53903;51.464;-2.584;2022-07-06T22:58:46;8.00;;;3.88;;
66974;SDS011;53903;51.464;-2.584;2022-07-06T23:01:13;7.78;;;3.30;;
66974;SDS011;53903;51.464;-2.584;2022-07-06T23:03:40;7.07;;;2.65;;
66974;SDS011;53903;51.464;-2.584;2022-07-06T23:06:06;9.30;;;3.28;;
66974;SDS011;53903;51.464;-2.584;2022-07-06T23:08:32;7.43;;;3.08;;
66974;SDS011;53903;51.464;-2.584;2022-07-06T23:10:57;9.02;;;3.15;;
66974;SDS011;53903;51.464;-2.584;2022-07-06T23:13:23;9.75;;;3.47;;
66974;SDS011;53903;51.464;-2.584;2022-07-06T23:15:48;9.75;;;3.45;;
66974;SDS011;53903;51.464;-2.584;2022-07-06T23:18:16;11.10;;;3.97;;
66974;SDS011;53903;51.464;-2.584;2022-07-06T23:20:42;11.10;;;4.55;;
66974;SDS011;53903;51.464;-2.584;2022-07-06T23:23:08;7.05;;;4.68;;
66974;SDS011;53903;51.464;-2.584;2022-07-06T23:25:33;10.85;;;4.65;;
66974;SDS011;53903;51.464;-2.584;2022-07-06T23:27:59;9.25;;;4.32;;
66974;SDS011;53903;51.464;-2.584;2022-07-06T23:30:24;10.05;;;4.75;;
66974;SDS011;53903;51.464;-2.584;2022-07-06T23:32:50;10.50;;;4.28;;
66974;SDS011;53903;51.464;-2.584;2022-07-06T23:35:15;13.18;;;5.28;;
66974;SDS011;53903;51.464;-2.584;2022-07-06T23:37:43;10.93;;;3.30;;
66974;SDS011;53903;51.464;-2.584;2022-07-06T23:40:09;11.70;;;4.07;;
66974;SDS011;53903;51.464;-2.584;2022-07-06T23:42:35;10.27;;;3.70;;
66974;SDS011;53903;51.464;-2.584;2022-07-06T23:45:00;10.38;;;3.70;;
66974;SDS011;53903;51.464;-2.584;2022-07-06T23:47:25;11.93;;;4.30;;
66974;SDS011;53903;51.464;-2.584;2022-07-06T23:49:51;13.75;;;4.10;;
66974;SDS011;53903;51.464;-2.584;2022-07-06T23:52:16;8.35;;;3.70;;
66974;SDS011;53903;51.464;-2.584;2022-07-06T23:54:42;9.45;;;3.38;;
66974;SDS011;53903;51.464;-2.584;2022-07-06T23:57:08;9.70;;;3.53;;
66974;SDS011;53903;51.464;-2.584;2022-07-06T23:59:33;10.95;;;3.10;;
